Time;durP1;ratioP1;P1;durP2;ratioP2;P2;SDS_P1;SDS_P2;PMS_P1;PMS_P2;Temp;Humidity;BMP_temperature;BMP_pressure;BME280_temperature;BME280_humidity;BME280_pressure;Samples;Min_cycle;Max_cycle;Signal;HPM_P1;HPM_P2
2020/12/10 00:02:12;;;;;;;52.47;24.07;;;-0.80;99.90;;;;;;5029702;28;20014;-58
2020/12/10 00:04:37;;;;;;;49.17;22.27;;;-0.70;99.90;;;;;;5028571;28;20037;-62
2020/12/10 00:07:04;;;;;;;50.10;23.70;;;-0.70;99.90;;;;;;5024047;28;20065;-59
2020/12/10 00:09:30;;;;;;;56.73;23.77;;;-0.70;99.90;;;;;;5030949;28;20059;-61
2020/12/10 00:11:55;;;;;;;46.13;21.63;;;-0.60;99.90;;;;;;5035965;28;20486;-60
2020/12/10 00:14:21;;;;;;;49.83;22.43;;;-0.60;99.90;;;;;;5026030;28;20049;-62
2020/12/10 00:16:48;;;;;;;48.23;22.00;;;-0.50;99.90;;;;;;5016339;28;20526;-60
2020/12/10 00:19:13;;;;;;;49.80;22.17;;;-0.50;99.90;;;;;;5028461;28;20036;-62
2020/12/10 00:21:39;;;;;;;45.30;22.10;;;-0.50;99.90;;;;;;5025685;28;20025;-59
2020/12/10 00:24:04;;;;;;;47.87;21.13;;;-0.50;99.90;;;;;;5022780;28;20038;-60
2020/12/10 00:26:30;;;;;;;39.33;20.73;;;-0.40;99.90;;;;;;5029815;28;20036;-61
2020/12/10 00:28:56;;;;;;;40.90;21.40;;;-0.40;99.90;;;;;;5026845;28;20053;-62
2020/12/10 00:31:21;;;;;;;42.93;21.40;;;-0.30;99.90;;;;;;5042107;28;20483;-62
2020/12/10 00:33:47;;;;;;;46.50;20.43;;;-0.30;99.90;;;;;;5048859;28;20526;-62
2020/12/10 00:36:13;;;;;;;44.33;21.33;;;-0.30;99.90;;;;;;5034495;28;20028;-63
2020/12/10 00:38:39;;;;;;;40.70;20.70;;;-0.30;99.90;;;;;;5025828;28;20014;-62
2020/12/10 00:41:04;;;;;;;49.03;22.87;;;-0.30;99.90;;;;;;5034940;28;20028;-63
2020/12/10 00:43:30;;;;;;;42.10;20.80;;;-0.30;99.90;;;;;;5027651;28;20021;-62
2020/12/10 00:46:04;;;;;;;37.65;19.67;;;-0.30;99.90;;;;;;5027570;28;20112;-62
2020/12/10 00:48:30;;;;;;;;;;;-0.20;99.90;;;;;;5025122;28;20029;-63
2020/12/10 00:50:56;;;;;;;39.73;19.27;;;-0.30;99.90;;;;;;5024481;28;19905;-63
2020/12/10 00:53:21;;;;;;;42.33;22.17;;;-0.20;99.90;;;;;;5027068;28;20045;-61
2020/12/10 00:55:47;;;;;;;42.00;20.73;;;-0.20;99.90;;;;;;5035799;28;20025;-62
2020/12/10 00:58:12;;;;;;;43.87;22.00;;;-0.20;99.90;;;;;;5038430;28;20025;-62
2020/12/10 01:00:38;;;;;;;41.67;20.60;;;-0.20;99.90;;;;;;5034367;28;20034;-62
2020/12/10 01:03:04;;;;;;;40.88;21.33;;;-0.20;99.90;;;;;;5028680;28;20041;-62
2020/12/10 01:05:29;;;;;;;39.50;21.30;;;-0.10;99.90;;;;;;5019697;28;20555;-61
2020/12/10 01:07:55;;;;;;;41.97;20.77;;;-0.10;99.90;;;;;;5021720;28;20553;-61
2020/12/10 01:10:21;;;;;;;44.47;23.37;;;-0.10;99.90;;;;;;5043281;28;20067;-61
2020/12/10 01:12:46;;;;;;;37.40;19.50;;;-0.10;99.90;;;;;;5033411;28;20022;-62
2020/12/10 01:15:12;;;;;;;43.40;20.83;;;-0.10;99.90;;;;;;5037206;28;20167;-61
2020/12/10 01:17:41;;;;;;;40.80;21.77;;;-0.10;99.90;;;;;;5035226;28;20032;-62
2020/12/10 01:20:07;;;;;;;39.73;20.07;;;-0.10;99.90;;;;;;5038132;28;20025;-64
2020/12/10 01:22:33;;;;;;;36.40;20.55;;;0.00;99.90;;;;;;5038446;28;20431;-63
2020/12/10 01:24:58;;;;;;;37.97;20.10;;;0.00;99.90;;;;;;5033033;28;20031;-63
2020/12/10 01:27:24;;;;;;;34.75;20.05;;;0.00;99.90;;;;;;5039781;28;20100;-61
2020/12/10 01:29:50;;;;;;;39.17;20.60;;;0.00;99.90;;;;;;5036577;28;20029;-62
2020/12/10 01:32:16;;;;;;;37.22;19.50;;;0.00;99.90;;;;;;5035226;28;20086;-62
2020/12/10 01:34:42;;;;;;;38.08;20.02;;;0.00;99.90;;;;;;5037369;28;20029;-63
2020/12/10 01:37:07;;;;;;;35.70;19.57;;;0.10;99.90;;;;;;5041188;28;20078;-62
2020/12/10 01:39:33;;;;;;;38.77;19.70;;;0.00;99.90;;;;;;5026213;28;20108;-61
2020/12/10 01:42:01;;;;;;;39.85;19.70;;;0.00;99.90;;;;;;5028246;28;20511;-61
2020/12/10 01:44:26;;;;;;;36.57;20.03;;;0.00;99.90;;;;;;5028367;28;20034;-63
2020/12/10 01:46:52;;;;;;;38.35;19.08;;;0.00;99.90;;;;;;5033105;28;20030;-63
2020/12/10 01:49:17;;;;;;;39.73;21.30;;;0.00;99.90;;;;;;5032626;28;20026;-62
2020/12/10 01:51:43;;;;;;;34.78;18.80;;;0.00;99.90;;;;;;5035194;28;20048;-62
2020/12/10 01:54:09;;;;;;;40.23;19.83;;;0.00;99.90;;;;;;5031640;28;20091;-63
2020/12/10 01:56:35;;;;;;;38.25;20.70;;;0.00;99.90;;;;;;5032716;28;20095;-61
2020/12/10 01:59:01;;;;;;;39.40;20.20;;;-0.10;99.90;;;;;;5033383;28;20558;-61
2020/12/10 02:01:28;;;;;;;36.87;19.07;;;-0.20;99.90;;;;;;5036722;28;20075;-62
2020/12/10 02:03:54;;;;;;;41.93;21.07;;;-0.20;99.90;;;;;;5020354;28;20018;-63
2020/12/10 02:06:19;;;;;;;42.00;20.17;;;-0.20;99.90;;;;;;5021026;28;20095;-61
2020/12/10 02:08:45;;;;;;;37.97;20.77;;;-0.20;99.90;;;;;;5036505;28;20490;-63
2020/12/10 02:11:11;;;;;;;41.17;21.17;;;-0.20;99.90;;;;;;5039018;28;20025;-61
2020/12/10 02:13:37;;;;;;;42.43;22.43;;;-0.20;99.90;;;;;;5039507;28;20029;-61
2020/12/10 02:16:04;;;;;;;40.37;20.77;;;-0.30;99.90;;;;;;5044518;28;20039;-61
2020/12/10 02:18:29;;;;;;;45.73;21.60;;;-0.30;99.90;;;;;;5042343;28;20083;-62
2020/12/10 02:20:55;;;;;;;41.27;22.23;;;-0.30;99.90;;;;;;5038655;28;20534;-62
2020/12/10 02:23:21;;;;;;;42.83;22.30;;;-0.40;99.90;;;;;;5028723;28;20022;-63
2020/12/10 02:25:46;;;;;;;45.43;23.10;;;-0.40;99.90;;;;;;5035751;28;20037;-61
2020/12/10 02:28:14;;;;;;;40.77;21.13;;;-0.40;99.90;;;;;;5032878;28;20034;-62
2020/12/10 02:30:41;;;;;;;43.17;21.97;;;-0.50;99.90;;;;;;5036417;28;20026;-61
2020/12/10 02:33:09;;;;;;;46.93;22.10;;;-0.50;99.90;;;;;;5033698;28;20103;-63
2020/12/10 02:35:37;;;;;;;43.70;23.37;;;-0.50;99.90;;;;;;5034714;28;20032;-63
2020/12/10 02:38:05;;;;;;;49.53;24.10;;;-0.50;99.90;;;;;;5035924;28;20412;-63
2020/12/10 02:40:40;;;;;;;47.17;24.70;;;-0.60;99.90;;;;;;5034910;28;20021;-62
2020/12/10 02:43:06;;;;;;;45.97;23.30;;;-0.60;99.90;;;;;;5032998;28;20033;-63
2020/12/10 02:45:32;;;;;;;48.63;24.60;;;-0.60;99.90;;;;;;5023927;28;20136;-61
2020/12/10 02:47:58;;;;;;;44.50;21.13;;;-0.60;99.90;;;;;;5021996;28;20056;-62
2020/12/10 02:50:24;;;;;;;50.67;23.47;;;-0.60;99.90;;;;;;5022317;28;20114;-61
2020/12/10 02:52:50;;;;;;;46.03;23.73;;;-0.60;99.90;;;;;;5026283;28;20075;-61
2020/12/10 02:55:16;;;;;;;43.87;23.37;;;-0.60;99.90;;;;;;5027221;28;20036;-60
2020/12/10 02:57:42;;;;;;;45.37;23.37;;;-0.50;99.90;;;;;;5026763;28;20037;-61
2020/12/10 03:00:09;;;;;;;46.70;23.63;;;-0.40;99.90;;;;;;5019298;28;20129;-62
2020/12/10 03:02:35;;;;;;;44.63;23.17;;;-0.40;99.90;;;;;;5032238;28;20106;-62
2020/12/10 03:05:01;;;;;;;47.17;23.57;;;-0.30;99.90;;;;;;5025914;28;20112;-63
2020/12/10 03:07:26;;;;;;;47.03;24.00;;;-0.30;99.90;;;;;;5022964;28;20124;-61
2020/12/10 03:09:52;;;;;;;45.33;22.53;;;-0.30;99.90;;;;;;5033906;28;20957;-61
2020/12/10 03:12:18;;;;;;;45.33;22.77;;;-0.30;99.90;;;;;;5032655;28;20124;-62
2020/12/10 03:14:43;;;;;;;42.67;22.70;;;-0.30;99.90;;;;;;5039094;28;20087;-62
2020/12/10 03:17:09;;;;;;;40.47;21.53;;;-0.30;99.90;;;;;;5040514;28;20029;-61
2020/12/10 03:19:35;;;;;;;42.93;22.43;;;-0.30;99.90;;;;;;5039721;28;20047;-61
2020/12/10 03:22:00;;;;;;;43.83;21.77;;;-0.30;99.90;;;;;;5042836;28;20104;-63
2020/12/10 03:24:26;;;;;;;43.40;23.67;;;-0.20;99.90;;;;;;4996712;28;20100;-63
2020/12/10 03:26:51;;;;;;;41.00;21.50;;;-0.20;99.90;;;;;;5038022;28;20013;-60
2020/12/10 03:29:17;;;;;;;39.73;19.77;;;-0.20;99.90;;;;;;5039637;28;20037;-62
2020/12/10 03:31:42;;;;;;;40.60;21.80;;;-0.10;99.90;;;;;;5038812;28;20029;-62
2020/12/10 03:34:08;;;;;;;39.00;20.87;;;-0.10;99.90;;;;;;5036727;28;20033;-61
2020/12/10 03:36:52;;;;;;;44.13;21.57;;;-0.10;99.90;;;;;;5039968;28;20028;-62
2020/12/10 03:39:19;;;;;;;38.67;21.63;;;-0.10;99.90;;;;;;5039539;28;20029;-63
2020/12/10 03:41:45;;;;;;;41.10;22.03;;;-0.10;99.90;;;;;;5038932;28;20029;-63
2020/12/10 03:44:12;;;;;;;42.90;22.30;;;0.00;99.90;;;;;;5039091;28;20057;-62
2020/12/10 03:46:39;;;;;;;40.43;21.90;;;0.00;99.90;;;;;;5039579;28;20029;-62
2020/12/10 03:49:05;;;;;;;38.63;20.77;;;0.00;99.90;;;;;;5026388;28;20029;-62
2020/12/10 03:51:31;;;;;;;40.65;21.48;;;0.00;99.90;;;;;;5039872;28;20033;-62
2020/12/10 03:53:56;;;;;;;39.13;21.53;;;-0.10;99.90;;;;;;5039399;28;20866;-62
2020/12/10 03:56:22;;;;;;;41.60;21.77;;;-0.10;99.90;;;;;;5039093;28;20033;-62
2020/12/10 03:58:48;;;;;;;39.13;21.30;;;-0.10;99.90;;;;;;5038577;28;20025;-62
2020/12/10 04:01:13;;;;;;;38.73;20.47;;;-0.10;99.90;;;;;;5038536;28;20121;-62
2020/12/10 04:03:39;;;;;;;39.80;21.90;;;-0.10;99.90;;;;;;5032017;28;20039;-62
2020/12/10 04:06:04;;;;;;;37.80;20.37;;;-0.10;99.90;;;;;;5029005;28;20039;-63
2020/12/10 04:08:30;;;;;;;35.85;19.60;;;-0.10;99.90;;;;;;5039358;28;20049;-63
2020/12/10 04:10:55;;;;;;;36.67;20.10;;;-0.10;99.90;;;;;;5037119;28;20097;-63
2020/12/10 04:13:21;;;;;;;35.67;19.00;;;-0.20;99.90;;;;;;5033069;28;20036;-61
2020/12/10 04:15:46;;;;;;;38.10;20.43;;;-0.20;99.90;;;;;;5035734;28;20079;-60
2020/12/10 04:18:12;;;;;;;39.43;21.37;;;-0.20;99.90;;;;;;5038417;28;20044;-62
2020/12/10 04:20:37;;;;;;;37.87;20.93;;;-0.30;99.90;;;;;;5041009;28;20592;-62
2020/12/10 04:23:03;;;;;;;41.53;22.43;;;-0.30;99.90;;;;;;5040257;28;20079;-62
2020/12/10 04:25:28;;;;;;;38.60;21.03;;;-0.40;99.90;;;;;;5034326;28;20078;-62
2020/12/10 04:27:54;;;;;;;43.00;21.73;;;-0.40;99.90;;;;;;5041467;28;20033;-62
2020/12/10 04:30:22;;;;;;;43.20;22.23;;;-0.50;99.90;;;;;;5035743;28;20445;-61
2020/12/10 04:32:48;;;;;;;39.73;21.83;;;-0.50;99.90;;;;;;5042058;28;20116;-61
2020/12/10 04:35:14;;;;;;;44.97;23.60;;;-0.60;99.90;;;;;;5035516;28;20116;-61
2020/12/10 04:37:41;;;;;;;45.93;23.60;;;-0.70;99.90;;;;;;5043236;28;20052;-62
2020/12/10 04:40:07;;;;;;;45.77;21.93;;;-0.80;99.90;;;;;;5030343;28;20014;-61
2020/12/10 04:42:34;;;;;;;46.80;22.77;;;-0.80;99.90;;;;;;5035380;28;20032;-62
2020/12/10 04:44:59;;;;;;;46.60;22.33;;;-0.90;99.90;;;;;;5036141;28;20025;-62
2020/12/10 04:47:28;;;;;;;49.97;24.57;;;-0.90;99.90;;;;;;5035162;28;20079;-62
2020/12/10 04:49:54;;;;;;;50.60;23.67;;;-0.90;99.90;;;;;;5030435;28;20133;-62
2020/12/10 04:52:22;;;;;;;47.70;23.50;;;-0.90;99.90;;;;;;5037182;28;20030;-61
2020/12/10 04:54:49;;;;;;;46.67;24.10;;;-0.90;99.90;;;;;;5038503;28;20512;-61
2020/12/10 04:57:17;;;;;;;50.47;24.67;;;-0.90;99.90;;;;;;5035227;28;20122;-61
2020/12/10 04:59:42;;;;;;;53.50;23.97;;;-1.00;99.90;;;;;;5035544;28;20384;-62
2020/12/10 05:02:10;;;;;;;53.70;24.90;;;-1.00;99.90;;;;;;5040487;28;20022;-62
2020/12/10 05:04:35;;;;;;;55.50;24.50;;;-1.00;99.90;;;;;;5028672;28;20026;-60
2020/12/10 05:07:01;;;;;;;51.27;24.07;;;-1.00;99.90;;;;;;5030345;28;20239;-62
2020/12/10 05:09:27;;;;;;;50.97;24.37;;;-1.00;99.90;;;;;;5030532;28;20025;-62
2020/12/10 05:11:54;;;;;;;53.67;24.97;;;-1.10;99.90;;;;;;5036264;28;20756;-62
2020/12/10 05:14:20;;;;;;;49.47;23.37;;;-1.10;99.90;;;;;;5038545;28;20033;-62
2020/12/10 05:16:45;;;;;;;55.60;26.00;;;-1.10;99.90;;;;;;5031654;28;20113;-60
2020/12/10 05:19:19;;;;;;;53.70;25.17;;;-1.10;99.90;;;;;;5037411;28;20021;-61
2020/12/10 05:22:05;;;;;;;49.92;24.10;;;-1.10;99.90;;;;;;5035341;28;20105;-61
2020/12/10 05:24:31;;;;;;;49.30;24.47;;;-1.10;99.90;;;;;;5037035;28;20537;-60
2020/12/10 05:27:20;;;;;;;49.97;23.60;;;-1.20;99.90;;;;;;5026288;28;20037;-60
2020/12/10 05:29:47;;;;;;;52.27;23.80;;;-1.20;99.90;;;;;;5025759;28;20030;-61
2020/12/10 05:32:36;;;;;;;50.73;23.77;;;-1.20;99.90;;;;;;5014884;28;20060;-60
2020/12/10 05:35:14;;;;;;;55.33;24.60;;;-1.20;99.90;;;;;;5025386;28;20028;-60
2020/12/10 05:37:40;;;;;;;54.53;24.57;;;-1.20;99.90;;;;;;5042825;28;20036;-61
2020/12/10 05:40:06;;;;;;;51.87;24.60;;;-1.20;99.90;;;;;;5034487;28;20055;-62
2020/12/10 05:42:36;;;;;;;55.00;26.13;;;-1.10;99.90;;;;;;5030279;28;20028;-62
2020/12/10 05:45:27;;;;;;;55.20;23.90;;;-1.20;99.90;;;;;;5041614;28;20113;-62
2020/12/10 05:47:57;;;;;;;55.37;24.57;;;-1.20;99.90;;;;;;5033239;28;20024;-61
2020/12/10 05:50:25;;;;;;;57.73;27.77;;;-1.20;99.90;;;;;;5034769;28;20461;-60
2020/12/10 05:53:05;;;;;;;55.13;25.87;;;-1.20;99.90;;;;;;5036945;28;20377;-61
2020/12/10 05:55:32;;;;;;;56.50;25.63;;;-1.20;99.90;;;;;;5038670;28;20536;-61
2020/12/10 05:58:00;;;;;;;53.50;25.33;;;-1.20;99.90;;;;;;5035788;28;20025;-62
2020/12/10 06:00:26;;;;;;;53.50;26.53;;;-1.30;99.90;;;;;;5037546;28;20470;-59
2020/12/10 06:02:53;;;;;;;54.97;25.73;;;-1.30;99.90;;;;;;5048023;28;20025;-61
2020/12/10 06:05:19;;;;;;;57.07;26.40;;;-1.30;99.90;;;;;;5024046;28;20030;-61
2020/12/10 06:08:01;;;;;;;54.27;27.40;;;-1.40;99.90;;;;;;5019901;28;20521;-62
2020/12/10 06:10:26;;;;;;;52.80;24.53;;;-1.30;99.90;;;;;;5037838;28;20441;-60
2020/12/10 06:12:52;;;;;;;51.50;24.00;;;-1.30;99.90;;;;;;5033144;28;20035;-61
2020/12/10 06:15:26;;;;;;;51.60;24.53;;;-1.30;99.90;;;;;;5037747;28;20032;-61
2020/12/10 06:18:01;;;;;;;46.20;23.05;;;-1.20;99.90;;;;;;5037872;28;20025;-60
2020/12/10 06:20:33;;;;;;;48.33;23.53;;;-1.20;99.90;;;;;;5049973;28;20063;-61
2020/12/10 06:23:28;;;;;;;51.37;25.20;;;-1.20;99.90;;;;;;5039482;28;20029;-62
2020/12/10 06:25:55;;;;;;;51.80;23.88;;;-1.20;99.90;;;;;;5034456;28;20030;-61
2020/12/10 06:28:23;;;;;;;52.03;24.43;;;-1.30;99.90;;;;;;5036868;28;20182;-62
2020/12/10 06:31:12;;;;;;;52.23;25.07;;;-1.30;99.90;;;;;;5035221;28;20032;-62
2020/12/10 06:33:40;;;;;;;45.40;23.23;;;-1.30;99.90;;;;;;5033173;28;20029;-61
2020/12/10 06:36:24;;;;;;;51.17;23.73;;;-1.30;99.90;;;;;;5023422;28;20048;-61
2020/12/10 06:38:55;;;;;;;52.65;24.98;;;-1.30;99.90;;;;;;5031421;28;20026;-61
2020/12/10 06:41:21;;;;;;;54.43;25.00;;;-1.30;99.90;;;;;;5034039;28;20037;-62
2020/12/10 06:43:47;;;;;;;54.10;26.60;;;-1.30;99.90;;;;;;5033817;28;20014;-61
2020/12/10 06:46:13;;;;;;;50.27;24.17;;;-1.40;99.90;;;;;;5037421;28;20029;-61
2020/12/10 06:48:43;;;;;;;48.33;23.37;;;-1.40;99.90;;;;;;5029553;28;20420;-60
2020/12/10 06:51:16;;;;;;;42.03;21.90;;;-1.30;99.90;;;;;;5037723;28;20029;-60
2020/12/10 06:54:03;;;;;;;50.67;22.30;;;-1.30;99.90;;;;;;5037252;28;20132;-60
2020/12/10 06:56:31;;;;;;;44.30;21.50;;;-1.30;99.90;;;;;;5036988;28;20068;-61
2020/12/10 06:58:59;;;;;;;50.47;25.17;;;-1.40;99.90;;;;;;5038517;28;20039;-61
2020/12/10 07:01:37;;;;;;;46.37;23.30;;;-1.30;99.90;;;;;;5041309;28;20029;-61
2020/12/10 07:04:17;;;;;;;52.63;23.33;;;-1.30;99.90;;;;;;5031141;28;20021;-62
2020/12/10 07:06:43;;;;;;;57.60;23.83;;;-1.30;99.90;;;;;;5043836;28;20013;-62
2020/12/10 07:09:15;;;;;;;44.90;21.80;;;-1.30;99.90;;;;;;5023642;28;20043;-62
2020/12/10 07:11:43;;;;;;;51.50;23.90;;;-1.30;99.90;;;;;;5038531;28;20578;-61
2020/12/10 07:14:30;;;;;;;40.60;20.60;;;-1.30;99.90;;;;;;5040574;28;20095;-61
2020/12/10 07:16:56;;;;;;;43.33;21.83;;;-1.30;99.90;;;;;;5039509;28;20014;-62
2020/12/10 07:19:23;;;;;;;44.57;22.13;;;-1.30;99.90;;;;;;5039996;28;20246;-61
2020/12/10 07:21:48;;;;;;;40.93;20.27;;;-1.30;99.90;;;;;;5042491;28;20112;-62
2020/12/10 07:24:14;;;;;;;44.87;21.83;;;-1.20;99.90;;;;;;5039335;28;20546;-62
2020/12/10 07:26:41;;;;;;;46.17;21.43;;;-1.30;99.90;;;;;;5034233;28;20160;-62
2020/12/10 07:29:07;;;;;;;43.43;20.73;;;-1.20;99.90;;;;;;5031566;28;20556;-62
2020/12/10 07:31:32;;;;;;;45.67;22.57;;;-1.30;99.90;;;;;;5034734;28;20017;-62
2020/12/10 07:33:58;;;;;;;48.00;23.33;;;-1.20;99.90;;;;;;5051067;28;20041;-60
2020/12/10 07:36:26;;;;;;;51.77;23.33;;;-1.20;99.90;;;;;;5039931;28;20526;-61
2020/12/10 07:38:51;;;;;;;40.60;20.73;;;-1.20;99.90;;;;;;5039670;28;20021;-61
2020/12/10 07:41:17;;;;;;;48.93;22.53;;;-1.20;99.90;;;;;;5036761;28;20501;-62
2020/12/10 07:43:53;;;;;;;50.17;24.37;;;-1.20;99.90;;;;;;5035486;28;20025;-60
2020/12/10 07:46:19;;;;;;;40.33;21.13;;;-1.20;99.90;;;;;;5041500;28;20380;-60
2020/12/10 07:48:46;;;;;;;39.83;20.33;;;-1.20;99.90;;;;;;5032146;28;20033;-61
2020/12/10 07:51:21;;;;;;;44.47;21.53;;;-1.10;99.90;;;;;;5035778;28;20097;-61
2020/12/10 07:53:48;;;;;;;39.60;20.53;;;-1.10;99.90;;;;;;5030692;28;20041;-61
2020/12/10 07:56:21;;;;;;;34.30;18.77;;;-1.00;99.90;;;;;;5037966;28;20033;-61
2020/12/10 07:59:02;;;;;;;40.50;19.83;;;-1.00;99.90;;;;;;5026024;28;20034;-61
2020/12/10 08:01:41;;;;;;;32.67;18.73;;;-0.90;99.90;;;;;;5020296;28;20082;-61
2020/12/10 08:04:19;;;;;;;36.77;18.33;;;-0.90;99.90;;;;;;5023182;28;20376;-60
2020/12/10 08:06:46;;;;;;;34.83;18.17;;;-0.80;99.90;;;;;;5024618;28;20041;-61
2020/12/10 08:09:13;;;;;;;33.57;18.07;;;-0.80;99.90;;;;;;5022700;28;20040;-61
2020/12/10 08:11:53;;;;;;;36.17;18.57;;;-0.80;99.90;;;;;;5036174;28;20541;-62
2020/12/10 08:14:26;;;;;;;37.77;17.80;;;-0.80;99.90;;;;;;5028173;28;20025;-61
2020/12/10 08:16:52;;;;;;;35.63;18.47;;;-0.80;99.90;;;;;;5035346;28;20112;-62
2020/12/10 08:19:20;;;;;;;34.90;18.17;;;-0.70;99.90;;;;;;5037727;28;20536;-61
2020/12/10 08:21:47;;;;;;;34.37;17.37;;;-0.70;99.90;;;;;;5041869;28;20021;-62
2020/12/10 08:24:13;;;;;;;38.00;19.37;;;-0.70;99.90;;;;;;5037450;28;20017;-60
2020/12/10 08:26:56;;;;;;;34.40;17.40;;;-0.70;99.90;;;;;;5032979;28;20441;-61
2020/12/10 08:29:22;;;;;;;32.83;17.37;;;-0.70;99.90;;;;;;5032003;28;20029;-62
2020/12/10 08:31:48;;;;;;;33.37;17.83;;;-0.70;99.90;;;;;;5036175;28;20025;-62
2020/12/10 08:34:17;;;;;;;35.40;17.03;;;-0.60;99.90;;;;;;5035800;28;20274;-60
2020/12/10 08:36:43;;;;;;;37.00;18.13;;;-0.60;99.90;;;;;;5035997;28;20056;-61
2020/12/10 08:39:09;;;;;;;35.53;19.93;;;-0.50;99.90;;;;;;5037848;28;20024;-61
2020/12/10 08:41:36;;;;;;;31.97;17.47;;;-0.50;99.90;;;;;;5038830;28;20029;-62
2020/12/10 08:44:04;;;;;;;34.67;18.00;;;-0.50;99.90;;;;;;5036797;28;20025;-62
2020/12/10 08:46:31;;;;;;;37.73;18.97;;;-0.40;99.90;;;;;;5038830;28;20025;-61
2020/12/10 08:49:13;;;;;;;33.40;17.53;;;-0.40;99.90;;;;;;5030551;28;20029;-62
2020/12/10 08:51:40;;;;;;;34.13;17.93;;;-0.30;99.90;;;;;;5040727;28;20024;-61
2020/12/10 08:54:05;;;;;;;30.57;15.90;;;-0.20;99.90;;;;;;5036664;28;20021;-60
2020/12/10 08:56:36;;;;;;;29.47;16.00;;;-0.20;99.90;;;;;;5034277;28;20043;-61
2020/12/10 08:59:03;;;;;;;31.17;16.83;;;-0.10;99.90;;;;;;5038039;28;20056;-61
2020/12/10 09:01:29;;;;;;;31.13;16.77;;;-0.10;99.90;;;;;;5054912;28;20040;-61
2020/12/10 09:03:54;;;;;;;33.50;18.17;;;-0.10;99.90;;;;;;5029903;28;20033;-61
2020/12/10 09:06:20;;;;;;;33.03;17.63;;;-0.10;99.90;;;;;;5028935;28;20029;-62
2020/12/10 09:08:46;;;;;;;30.80;16.37;;;0.00;99.90;;;;;;5017082;28;20042;-61
2020/12/10 09:11:11;;;;;;;33.17;17.73;;;0.00;99.90;;;;;;5036229;28;20395;-62
2020/12/10 09:13:37;;;;;;;32.50;16.37;;;0.00;99.90;;;;;;5035160;28;20029;-65
2020/12/10 09:16:02;;;;;;;31.10;17.25;;;0.00;99.90;;;;;;5039970;28;20028;-60
2020/12/10 09:18:28;;;;;;;31.20;15.68;;;0.10;99.90;;;;;;5031754;28;20040;-61
2020/12/10 09:20:55;;;;;;;29.63;17.05;;;0.10;99.90;;;;;;5040176;28;20037;-62
2020/12/10 09:23:20;;;;;;;30.90;16.27;;;0.10;99.90;;;;;;5026697;28;20047;-61
2020/12/10 09:25:46;;;;;;;30.48;17.20;;;0.20;99.90;;;;;;5033907;28;20398;-62
2020/12/10 09:28:12;;;;;;;28.75;15.07;;;0.20;99.90;;;;;;5032280;28;20129;-62
2020/12/10 09:30:38;;;;;;;29.88;15.30;;;0.30;99.90;;;;;;5034552;28;20029;-62
2020/12/10 09:33:04;;;;;;;32.03;17.33;;;0.30;99.90;;;;;;5040762;28;20029;-62
2020/12/10 09:35:31;;;;;;;29.85;16.25;;;0.40;99.90;;;;;;5034541;28;20021;-61
2020/12/10 09:37:57;;;;;;;33.20;16.85;;;0.40;99.90;;;;;;5042431;28;20483;-61
2020/12/10 09:40:23;;;;;;;28.55;15.75;;;0.40;99.90;;;;;;5026021;28;20029;-61
2020/12/10 09:42:50;;;;;;;31.50;15.20;;;0.40;99.90;;;;;;5042799;28;20037;-60
2020/12/10 09:45:18;;;;;;;27.70;15.02;;;0.50;99.90;;;;;;5039414;28;20438;-61
2020/12/10 09:47:46;;;;;;;29.25;16.33;;;0.50;99.90;;;;;;5034754;28;20025;-61
2020/12/10 09:50:36;;;;;;;30.30;16.05;;;0.60;99.90;;;;;;5030194;28;20026;-62
2020/12/10 09:53:08;;;;;;;30.15;15.05;;;0.60;99.90;;;;;;5037239;28;20021;-62
2020/12/10 09:56:00;;;;;;;25.85;13.15;;;0.60;99.90;;;;;;5038353;28;20253;-61
2020/12/10 09:58:25;;;;;;;24.58;12.95;;;0.70;99.90;;;;;;5025543;28;20037;-61
2020/12/10 10:00:51;;;;;;;27.60;14.68;;;0.70;99.90;;;;;;5033999;28;20026;-62
2020/12/10 10:03:17;;;;;;;27.23;14.57;;;0.80;99.90;;;;;;5028501;28;20022;-61
2020/12/10 10:05:43;;;;;;;24.52;13.30;;;0.80;99.90;;;;;;5029582;28;20021;-61
2020/12/10 10:08:09;;;;;;;23.17;13.80;;;0.80;99.90;;;;;;5025956;28;20029;-62
2020/12/10 10:10:34;;;;;;;22.08;12.80;;;0.90;99.90;;;;;;5029965;28;20037;-60
2020/12/10 10:13:00;;;;;;;22.58;13.35;;;0.90;99.90;;;;;;5037632;28;20033;-61
2020/12/10 10:15:26;;;;;;;23.23;12.60;;;1.00;99.90;;;;;;5036771;28;20029;-59
2020/12/10 10:17:51;;;;;;;27.27;12.93;;;1.00;99.90;;;;;;5038910;28;20072;-60
2020/12/10 10:20:17;;;;;;;23.58;13.18;;;1.10;99.90;;;;;;5038497;28;20033;-61
2020/12/10 10:22:43;;;;;;;23.17;12.88;;;1.20;99.90;;;;;;5040113;28;20064;-61
2020/12/10 10:25:09;;;;;;;21.42;12.75;;;1.30;99.90;;;;;;5032521;28;20034;-61
2020/12/10 10:27:35;;;;;;;16.58;10.05;;;1.30;99.90;;;;;;5042148;28;20444;-60
2020/12/10 10:30:04;;;;;;;22.05;11.32;;;1.40;99.90;;;;;;5039069;28;20121;-61
2020/12/10 10:32:29;;;;;;;20.42;11.75;;;1.40;99.90;;;;;;5045750;28;20039;-61
2020/12/10 10:34:55;;;;;;;19.73;11.35;;;1.40;99.90;;;;;;5037145;28;20120;-61
2020/12/10 10:37:20;;;;;;;20.13;10.80;;;1.50;99.90;;;;;;5039109;28;20072;-62
2020/12/10 10:39:46;;;;;;;18.55;9.95;;;1.50;99.90;;;;;;5040383;28;20079;-61
2020/12/10 10:42:11;;;;;;;16.77;9.85;;;1.50;99.90;;;;;;5037370;28;20036;-62
2020/12/10 10:44:37;;;;;;;18.38;8.77;;;1.60;99.90;;;;;;5040313;28;20025;-60
2020/12/10 10:47:02;;;;;;;16.80;8.77;;;1.60;99.90;;;;;;5037542;28;20173;-62
2020/12/10 10:49:28;;;;;;;15.27;8.73;;;1.70;99.90;;;;;;5032849;28;20491;-62
2020/12/10 10:51:54;;;;;;;18.52;8.88;;;1.80;99.90;;;;;;5037521;28;20059;-63
2020/12/10 10:54:20;;;;;;;13.95;7.85;;;1.80;99.90;;;;;;5035899;28;20037;-62
2020/12/10 10:56:46;;;;;;;12.45;7.82;;;1.90;99.90;;;;;;5035161;28;20025;-62
2020/12/10 10:59:12;;;;;;;13.50;7.95;;;2.10;99.90;;;;;;5039669;28;20022;-62
2020/12/10 11:01:37;;;;;;;10.23;5.90;;;2.20;99.90;;;;;;5043053;28;20651;-61
2020/12/10 11:04:03;;;;;;;12.35;6.85;;;2.20;99.90;;;;;;5029504;28;20047;-63
2020/12/10 11:06:28;;;;;;;9.40;5.75;;;2.30;99.90;;;;;;5035837;28;20038;-62
2020/12/10 11:08:54;;;;;;;12.02;6.38;;;2.30;99.90;;;;;;5030490;28;20055;-63
2020/12/10 11:11:21;;;;;;;9.63;5.82;;;2.30;99.90;;;;;;5038601;28;20029;-62
2020/12/10 11:13:47;;;;;;;10.48;6.18;;;2.30;99.90;;;;;;5038257;28;20027;-63
2020/12/10 11:16:14;;;;;;;12.00;7.03;;;2.30;99.90;;;;;;5043501;28;20047;-62
2020/12/10 11:18:41;;;;;;;11.07;6.55;;;2.30;99.90;;;;;;5033234;28;20114;-63
2020/12/10 11:21:07;;;;;;;11.52;6.97;;;2.30;99.90;;;;;;5028738;28;20041;-63
2020/12/10 11:23:32;;;;;;;10.57;6.15;;;2.40;99.90;;;;;;5035489;28;20029;-62
2020/12/10 11:25:58;;;;;;;10.50;6.50;;;2.40;99.90;;;;;;5021290;28;20110;-61
2020/12/10 11:28:23;;;;;;;15.52;7.75;;;2.40;99.90;;;;;;5030354;28;20025;-62
2020/12/10 11:30:50;;;;;;;10.93;6.93;;;2.50;99.90;;;;;;5038411;28;20577;-62
2020/12/10 11:33:15;;;;;;;13.00;6.57;;;2.40;99.90;;;;;;5030795;28;20033;-62
2020/12/10 11:35:41;;;;;;;10.65;6.43;;;2.50;99.90;;;;;;5020326;28;20029;-63
2020/12/10 11:38:07;;;;;;;10.55;6.32;;;2.50;99.90;;;;;;5033222;28;20025;-63
2020/12/10 11:40:32;;;;;;;11.18;6.22;;;2.50;99.90;;;;;;5025453;28;20108;-63
2020/12/10 11:42:58;;;;;;;10.13;6.10;;;2.50;99.90;;;;;;5028473;28;20022;-63
2020/12/10 11:45:23;;;;;;;14.20;6.28;;;2.50;99.90;;;;;;5008273;28;20030;-63
2020/12/10 11:47:50;;;;;;;9.35;5.72;;;2.50;99.90;;;;;;5008154;28;20025;-63
2020/12/10 11:50:19;;;;;;;9.77;6.00;;;2.50;99.90;;;;;;5027265;28;20041;-63
2020/12/10 11:52:46;;;;;;;10.25;6.15;;;2.50;99.90;;;;;;5009469;28;20022;-63
2020/12/10 11:55:12;;;;;;;9.88;5.63;;;2.50;99.90;;;;;;5008558;28;20028;-62
2020/12/10 11:57:38;;;;;;;9.32;5.15;;;2.40;99.90;;;;;;5012822;28;20103;-62
2020/12/10 12:00:06;;;;;;;11.45;5.82;;;2.40;99.90;;;;;;5011054;28;20076;-63
2020/12/10 12:02:31;;;;;;;13.57;6.50;;;2.30;99.90;;;;;;5032836;28;20097;-63
2020/12/10 12:04:57;;;;;;;11.77;5.90;;;2.30;99.90;;;;;;5027131;28;20168;-61
2020/12/10 12:07:22;;;;;;;10.25;5.65;;;2.30;99.90;;;;;;5017693;28;20026;-62
2020/12/10 12:09:48;;;;;;;8.98;5.63;;;2.30;99.90;;;;;;5009215;28;20049;-61
2020/12/10 12:12:13;;;;;;;9.25;5.90;;;2.30;99.90;;;;;;5017451;28;20033;-63
2020/12/10 12:14:39;;;;;;;10.70;5.72;;;2.40;99.90;;;;;;5013273;28;20017;-61
2020/12/10 12:17:05;;;;;;;8.43;5.78;;;2.40;99.90;;;;;;5014406;28;20032;-62
2020/12/10 12:19:30;;;;;;;12.50;5.68;;;2.40;99.90;;;;;;5015101;28;20087;-61
2020/12/10 12:22:00;;;;;;;8.88;5.05;;;2.40;99.90;;;;;;5017464;28;20025;-62
2020/12/10 12:24:25;;;;;;;11.73;5.63;;;2.40;99.90;;;;;;5028483;28;20761;-63
2020/12/10 12:26:51;;;;;;;11.13;6.55;;;2.30;99.90;;;;;;5016964;28;20257;-61
2020/12/10 12:29:17;;;;;;;11.07;6.40;;;2.30;99.90;;;;;;5012008;28;20034;-62
2020/12/10 12:31:42;;;;;;;11.25;6.97;;;2.20;99.90;;;;;;5017809;28;20049;-62
2020/12/10 12:34:08;;;;;;;9.45;5.82;;;2.10;99.90;;;;;;5012272;28;20033;-61
2020/12/10 12:36:33;;;;;;;13.15;6.32;;;2.10;99.90;;;;;;5012903;28;20304;-62